createdAt,value
2023-03-04T00:01:05.402Z,4.30
2023-03-04T00:03:54.897Z,4.22
2023-03-04T00:06:43.543Z,4.30
2023-03-04T00:09:33.764Z,4.39
2023-03-04T00:12:22.457Z,4.41
2023-03-04T00:15:12.536Z,4.29
2023-03-04T00:18:01.124Z,4.48
2023-03-04T00:20:50.885Z,4.52
2023-03-04T00:23:41.260Z,4.48
2023-03-04T00:26:32.492Z,4.42
2023-03-04T00:29:22.094Z,4.28
2023-03-04T00:32:11.821Z,4.23
2023-03-04T00:35:01.434Z,4.20
2023-03-04T00:37:50.810Z,4.15
2023-03-04T00:40:39.377Z,4.08
2023-03-04T00:43:29.827Z,3.98
2023-03-04T00:46:19.316Z,3.92
2023-03-04T00:49:07.942Z,3.87
2023-03-04T00:51:57.620Z,3.88
2023-03-04T00:54:46.167Z,3.85
2023-03-04T00:57:37.300Z,3.87
2023-03-04T01:00:27.486Z,3.83
2023-03-04T01:03:17.260Z,3.87
2023-03-04T01:06:06.297Z,3.93
2023-03-04T01:08:55.823Z,3.94
2023-03-04T01:11:44.881Z,3.93
2023-03-04T01:14:34.635Z,3.99
2023-03-04T01:17:24.646Z,3.98
2023-03-04T01:20:14.882Z,4.07
2023-03-04T01:23:03.473Z,4.03
2023-03-04T01:29:07.106Z,3.86
2023-03-04T01:31:56.366Z,3.85
2023-03-04T01:34:47.037Z,3.66
2023-03-04T01:37:37.356Z,3.67
2023-03-04T01:40:26.095Z,3.68
2023-03-04T01:43:22.760Z,3.65
2023-03-04T01:46:15.147Z,3.64
2023-03-04T01:49:05.335Z,3.62
2023-03-04T01:51:56.387Z,3.67
2023-03-04T01:54:45.400Z,3.62
2023-03-04T01:57:37.388Z,3.64
2023-03-04T02:00:30.491Z,3.53
2023-03-04T02:03:21.134Z,3.47
2023-03-04T02:06:09.891Z,3.49
2023-03-04T02:09:01.549Z,3.43
2023-03-04T02:11:52.488Z,3.58
2023-03-04T02:14:41.970Z,3.57
2023-03-04T02:17:33.380Z,3.58
2023-03-04T02:20:31.642Z,3.45
2023-03-04T02:23:27.038Z,3.57
2023-03-04T02:26:21.049Z,3.58
2023-03-04T02:29:14.967Z,3.54
2023-03-04T02:32:04.733Z,3.49
2023-03-04T02:34:55.074Z,3.50
2023-03-04T02:37:44.527Z,3.47
2023-03-04T02:40:35.766Z,3.46
2023-03-04T02:43:26.522Z,3.45
2023-03-04T02:46:15.537Z,3.28
2023-03-04T02:49:04.772Z,3.42
2023-03-04T02:51:54.834Z,3.44
2023-03-04T02:54:43.440Z,3.41
2023-03-04T02:57:34.125Z,3.39
2023-03-04T03:00:24.742Z,3.33
2023-03-04T03:03:14.261Z,3.30
2023-03-04T03:06:04.449Z,3.32
2023-03-04T03:08:53.150Z,3.29
2023-03-04T03:11:43.373Z,3.32
2023-03-04T03:14:32.137Z,3.29
2023-03-04T03:17:23.752Z,3.31
2023-03-04T03:20:13.987Z,3.29
2023-03-04T03:23:03.508Z,3.28
2023-03-04T03:25:52.223Z,3.25
2023-03-04T03:28:41.898Z,3.17
2023-03-04T03:31:30.616Z,3.20
2023-03-04T03:34:22.401Z,3.23
2023-03-04T03:37:11.813Z,3.20
2023-03-04T03:40:01.341Z,3.20
2023-03-04T03:42:50.294Z,3.07
2023-03-04T03:45:38.944Z,3.04
2023-03-04T03:48:28.419Z,2.93
2023-03-04T03:51:19.223Z,2.83
2023-03-04T03:54:07.823Z,2.76
2023-03-04T03:56:57.984Z,2.73
2023-03-04T03:59:47.059Z,2.55
2023-03-04T04:02:36.150Z,2.78
2023-03-04T04:05:24.880Z,2.62
2023-03-04T04:08:17.523Z,2.83
2023-03-04T04:11:06.377Z,2.77
2023-03-04T04:13:56.147Z,2.77
2023-03-04T04:16:44.803Z,2.78
2023-03-04T04:19:34.378Z,2.76
2023-03-04T04:22:23.092Z,2.61
2023-03-04T04:25:13.827Z,2.46
2023-03-04T04:32:13.603Z,2.39
2023-03-04T04:35:02.171Z,2.35
2023-03-04T04:37:51.872Z,2.30
2023-03-04T04:40:42.956Z,2.23
2023-03-04T04:43:31.946Z,2.33
2023-03-04T04:46:21.607Z,2.42
2023-03-04T04:49:10.837Z,2.45
2023-03-04T04:51:59.955Z,2.42
2023-03-04T04:54:48.510Z,2.40
2023-03-04T04:57:38.969Z,2.26
2023-03-04T05:00:28.256Z,2.39
2023-03-04T05:03:18.502Z,2.39
2023-03-04T05:06:10.717Z,2.29
2023-03-04T05:08:59.793Z,2.24
2023-03-04T05:11:48.342Z,2.21
2023-03-04T05:14:40.096Z,2.11
2023-03-04T05:17:28.924Z,2.09
2023-03-04T05:20:18.300Z,2.03
2023-03-04T05:23:06.907Z,2.10
2023-03-04T05:25:56.594Z,2.07
2023-03-04T05:28:46.734Z,2.13
2023-03-04T05:31:36.686Z,2.20
2023-03-04T05:34:26.148Z,2.20
2023-03-04T05:37:14.663Z,2.22
2023-03-04T05:40:03.311Z,2.24
2023-03-04T05:42:51.840Z,2.18
2023-03-04T05:45:41.602Z,2.14
2023-03-04T05:48:31.640Z,2.17
2023-03-04T05:51:21.205Z,2.13
2023-03-04T05:54:10.241Z,2.11
2023-03-04T05:56:59.256Z,1.90
2023-03-04T05:59:47.880Z,2.12
2023-03-04T06:02:38.360Z,2.10
2023-03-04T06:05:28.266Z,2.09
2023-03-04T06:08:17.342Z,2.01
2023-03-04T06:11:07.213Z,2.07
2023-03-04T06:13:56.325Z,2.11
2023-03-04T06:16:44.917Z,2.14
2023-03-04T06:19:33.772Z,2.16
2023-03-04T06:22:24.084Z,2.16
2023-03-04T06:25:12.984Z,2.07
2023-03-04T06:28:01.901Z,2.01
2023-03-04T06:30:53.320Z,2.00
2023-03-04T06:33:41.870Z,2.00
2023-03-04T06:36:31.112Z,1.99
2023-03-04T06:39:21.111Z,2.04
2023-03-04T06:42:09.703Z,2.08
2023-03-04T06:44:59.064Z,2.06
2023-03-04T06:47:48.062Z,2.06
2023-03-04T06:50:36.682Z,2.05
2023-03-04T06:53:26.009Z,2.03
2023-03-04T06:56:16.954Z,2.05
2023-03-04T06:59:06.904Z,2.15
2023-03-04T07:01:55.995Z,2.13
2023-03-04T07:04:44.598Z,2.17
2023-03-04T07:07:33.563Z,2.19
2023-03-04T07:10:22.107Z,2.16
2023-03-04T07:13:13.526Z,2.20
2023-03-04T07:16:02.497Z,2.22
2023-03-04T07:18:51.980Z,2.25
2023-03-04T07:21:40.590Z,2.35
2023-03-04T07:24:29.777Z,2.38
2023-03-04T07:27:18.827Z,2.43
2023-03-04T07:30:11.112Z,2.50
2023-03-04T07:33:00.481Z,2.55
2023-03-04T07:35:49.063Z,2.67
2023-03-04T07:38:37.672Z,2.63
2023-03-04T07:41:28.655Z,2.84
2023-03-04T07:44:17.203Z,2.95
2023-03-04T07:47:07.906Z,2.81
2023-03-04T07:49:57.117Z,3.22
2023-03-04T07:52:47.779Z,3.40
2023-03-04T07:55:36.278Z,3.42
2023-03-04T07:58:25.704Z,3.54
2023-03-04T08:01:17.552Z,3.60
2023-03-04T08:04:08.944Z,3.56
2023-03-04T08:06:58.028Z,3.65
2023-03-04T08:09:47.008Z,3.79
2023-03-04T08:12:35.791Z,3.85
2023-03-04T08:15:26.302Z,3.98
2023-03-04T08:18:14.851Z,4.04
2023-03-04T08:21:09.656Z,4.03
2023-03-04T08:23:59.919Z,4.21
2023-03-04T08:26:50.943Z,4.24
2023-03-04T08:29:41.388Z,4.36
2023-03-04T08:32:30.057Z,4.43
2023-03-04T08:35:19.815Z,4.59
2023-03-04T08:38:09.726Z,4.67
2023-03-04T08:41:00.439Z,4.72
2023-03-04T08:43:48.983Z,4.81
2023-03-04T08:46:39.422Z,4.89
2023-03-04T08:49:27.963Z,4.98
2023-03-04T08:52:17.397Z,5.15
2023-03-04T08:55:08.462Z,5.29
2023-03-04T08:57:57.395Z,5.40
2023-03-04T09:00:50.110Z,5.66
2023-03-04T09:03:39.641Z,5.73
2023-03-04T09:06:28.308Z,5.91
2023-03-04T09:09:16.886Z,5.99
2023-03-04T09:12:07.131Z,6.24
2023-03-04T09:15:10.335Z,6.39
2023-03-04T09:18:00.235Z,6.60
2023-03-04T09:20:50.521Z,6.50
2023-03-04T09:23:40.056Z,6.70
2023-03-04T09:26:30.822Z,6.75
2023-03-04T09:29:20.905Z,6.87
2023-03-04T09:32:10.441Z,7.20
2023-03-04T09:34:59.267Z,7.60
2023-03-04T09:37:48.912Z,7.40
2023-03-04T09:40:42.486Z,6.99
2023-03-04T09:43:32.189Z,7.00
2023-03-04T09:46:34.120Z,7.02
2023-03-04T09:49:24.121Z,7.06
2023-03-04T09:52:25.379Z,7.32
2023-03-04T09:55:22.477Z,7.49
2023-03-04T09:58:23.535Z,7.53
2023-03-04T10:01:21.049Z,7.61
2023-03-04T10:04:17.606Z,7.62
2023-03-04T10:07:08.728Z,8.01
2023-03-04T10:10:03.484Z,7.96
2023-03-04T10:12:56.513Z,8.02
2023-03-04T10:15:51.118Z,7.85
2023-03-04T10:18:45.549Z,8.09
2023-03-04T10:21:40.238Z,7.75
2023-03-04T10:24:31.511Z,7.98
2023-03-04T10:27:21.406Z,7.52
2023-03-04T10:30:21.017Z,7.40
2023-03-04T10:33:14.280Z,7.19
2023-03-04T10:36:06.508Z,7.25
2023-03-04T10:38:59.264Z,7.21
2023-03-04T10:41:58.896Z,7.59
2023-03-04T10:44:54.055Z,7.50
2023-03-04T10:47:54.182Z,7.16
2023-03-04T10:50:42.745Z,7.17
2023-03-04T10:53:38.709Z,7.27
2023-03-04T10:56:35.514Z,7.23
2023-03-04T10:59:46.987Z,6.84
2023-03-04T11:02:38.171Z,6.59
2023-03-04T11:05:27.578Z,6.61
2023-03-04T11:08:20.197Z,6.99
2023-03-04T11:11:24.470Z,6.61
2023-03-04T11:14:22.661Z,6.41
2023-03-04T11:17:23.630Z,6.28
2023-03-04T11:20:19.904Z,6.19
2023-03-04T11:23:15.849Z,6.09
2023-03-04T11:26:11.695Z,5.89
2023-03-04T11:29:07.024Z,6.36
2023-03-04T11:32:04.172Z,6.29
2023-03-04T11:35:01.031Z,6.03
2023-03-04T11:37:55.974Z,5.90
2023-03-04T11:40:48.305Z,5.93
2023-03-04T11:43:38.951Z,5.85
2023-03-04T11:47:06.975Z,5.89
2023-03-04T11:50:17.366Z,5.67
2023-03-04T11:53:22.082Z,5.72
2023-03-04T11:56:31.647Z,5.75
2023-03-04T11:59:53.791Z,5.72
2023-03-04T12:02:51.471Z,5.63
2023-03-04T12:05:52.540Z,5.70
2023-03-04T12:09:01.601Z,5.75
2023-03-04T12:12:02.968Z,5.82
2023-03-04T12:15:02.696Z,5.99
2023-03-04T12:18:13.742Z,5.94
2023-03-04T12:21:18.296Z,5.82
2023-03-04T12:24:32.597Z,5.69
2023-03-04T12:27:29.147Z,5.51
2023-03-04T12:30:29.317Z,5.31
2023-03-04T12:33:27.269Z,5.35
2023-03-04T12:36:27.650Z,5.36
2023-03-04T12:39:31.202Z,5.26
2023-03-04T12:42:30.968Z,5.27
2023-03-04T12:45:27.560Z,5.22
2023-03-04T12:48:28.852Z,5.17
2023-03-04T12:51:30.845Z,5.19
2023-03-04T12:54:28.078Z,5.26
2023-03-04T12:57:20.963Z,5.12
2023-03-04T13:00:24.292Z,5.02
2023-03-04T13:03:18.415Z,4.97
2023-03-04T13:06:26.772Z,5.03
2023-03-04T13:09:24.993Z,4.93
2023-03-04T13:12:21.609Z,4.83
2023-03-04T13:15:32.343Z,4.68
2023-03-04T13:18:37.248Z,4.57
2023-03-04T13:21:29.971Z,4.60
2023-03-04T13:24:47.707Z,4.67
2023-03-04T13:27:48.590Z,4.59
2023-03-04T13:31:06.741Z,4.57
2023-03-04T13:34:00.893Z,4.52
2023-03-04T13:37:04.425Z,4.51
2023-03-04T13:40:27.513Z,4.53
2023-03-04T13:43:39.599Z,4.60
2023-03-04T13:46:43.862Z,4.61
2023-03-04T13:49:32.559Z,4.57
2023-03-04T13:52:51.403Z,4.63
2023-03-04T13:55:43.431Z,4.65
2023-03-04T13:58:32.109Z,4.62
2023-03-04T14:01:26.524Z,4.63
2023-03-04T14:04:19.989Z,4.55
2023-03-04T14:07:22.173Z,4.41
2023-03-04T14:10:24.039Z,4.36
2023-03-04T14:13:13.447Z,4.33
2023-03-04T14:16:02.058Z,4.42
2023-03-04T14:19:07.019Z,4.39
2023-03-04T14:21:56.140Z,4.29
2023-03-04T14:24:57.465Z,4.30
2023-03-04T14:27:47.972Z,4.28
2023-03-04T14:30:43.759Z,4.24
2023-03-04T14:33:33.702Z,4.19
2023-03-04T14:36:25.894Z,4.08
2023-03-04T14:39:19.557Z,4.09
2023-03-04T14:42:13.496Z,4.08
2023-03-04T14:45:04.164Z,3.93
2023-03-04T14:47:55.681Z,3.85
2023-03-04T14:50:50.178Z,3.89
2023-03-04T14:53:55.278Z,3.91
2023-03-04T14:56:46.305Z,3.80
2023-03-04T14:59:36.485Z,3.85
2023-03-04T15:02:32.480Z,3.76
2023-03-04T15:05:26.251Z,3.79
2023-03-04T15:08:24.127Z,3.81
2023-03-04T15:11:24.322Z,3.83
2023-03-04T15:14:45.927Z,3.76
2023-03-04T15:17:39.112Z,3.75
2023-03-04T15:20:29.997Z,3.77
2023-03-04T15:23:19.768Z,3.72
2023-03-04T15:26:11.700Z,3.57
2023-03-04T15:29:00.963Z,3.28
2023-03-04T15:31:49.738Z,3.39
2023-03-04T15:34:40.395Z,3.40
2023-03-04T15:37:30.965Z,3.40
2023-03-04T15:40:26.426Z,3.41
2023-03-04T15:43:17.204Z,3.46
2023-03-04T15:46:06.307Z,3.43
2023-03-04T15:48:56.280Z,3.43
2023-03-04T15:51:46.273Z,3.34
2023-03-04T15:54:35.623Z,3.34
2023-03-04T15:57:26.738Z,3.28
2023-03-04T16:00:18.075Z,3.26
2023-03-04T16:03:06.596Z,3.28
2023-03-04T16:05:56.724Z,3.21
2023-03-04T16:08:47.411Z,3.20
2023-03-04T16:11:42.534Z,3.17
2023-03-04T16:14:31.017Z,3.24
2023-03-04T16:17:21.244Z,3.14
2023-03-04T16:20:12.952Z,3.07
2023-03-04T16:23:04.180Z,3.08
2023-03-04T16:25:57.365Z,3.09
2023-03-04T16:28:46.435Z,3.04
2023-03-04T16:31:34.987Z,3.21
2023-03-04T16:34:25.236Z,3.35
2023-03-04T16:37:19.664Z,3.43
2023-03-04T16:40:12.632Z,3.47
2023-03-04T16:43:02.548Z,3.49
2023-03-04T16:45:53.011Z,3.50
2023-03-04T16:48:41.909Z,3.51
2023-03-04T16:51:35.664Z,3.51
2023-03-04T16:54:29.926Z,3.55
2023-03-04T16:57:19.115Z,3.58
2023-03-04T17:00:11.091Z,3.63
2023-03-04T17:03:02.264Z,3.60
2023-03-04T17:05:51.369Z,3.60
2023-03-04T17:08:40.014Z,3.65
2023-03-04T17:11:29.215Z,3.59
2023-03-04T17:14:17.722Z,3.55
2023-03-04T17:17:09.011Z,3.49
2023-03-04T17:19:57.899Z,3.51
2023-03-04T17:22:47.573Z,3.54
2023-03-04T17:25:36.116Z,3.51
2023-03-04T17:28:24.857Z,3.48
2023-03-04T17:31:15.519Z,3.55
2023-03-04T17:34:05.394Z,3.46
2023-03-04T17:36:55.553Z,3.50
2023-03-04T17:39:44.512Z,3.52
2023-03-04T17:42:33.107Z,3.53
2023-03-04T17:45:21.685Z,3.50
2023-03-04T17:48:14.977Z,3.44
2023-03-04T17:51:06.146Z,3.53
2023-03-04T17:53:55.814Z,3.53
2023-03-04T17:56:44.898Z,3.49
2023-03-04T17:59:33.727Z,3.49
2023-03-04T18:02:22.587Z,3.43
2023-03-04T18:05:11.883Z,3.39
2023-03-04T18:08:01.746Z,3.33
2023-03-04T18:10:50.845Z,3.25
2023-03-04T18:13:40.018Z,3.17
2023-03-04T18:16:31.732Z,3.19
2023-03-04T18:19:21.544Z,3.22
2023-03-04T18:22:13.734Z,3.22
2023-03-04T18:25:03.701Z,3.21
2023-03-04T18:27:53.351Z,3.22
2023-03-04T18:30:41.926Z,3.18
2023-03-04T18:33:32.978Z,3.27
2023-03-04T18:36:21.805Z,3.11
2023-03-04T18:39:11.432Z,3.25
2023-03-04T18:42:02.599Z,3.10
2023-03-04T18:44:51.639Z,3.27
2023-03-04T18:47:41.529Z,3.29
2023-03-04T18:50:30.453Z,3.27
2023-03-04T18:53:19.244Z,3.37
2023-03-04T18:56:12.408Z,3.31
2023-03-04T18:59:03.301Z,3.32
2023-03-04T19:01:54.106Z,3.29
2023-03-04T19:04:42.632Z,3.33
2023-03-04T19:07:32.149Z,3.37
2023-03-04T19:10:21.529Z,3.31
2023-03-04T19:13:10.124Z,3.24
2023-03-04T19:16:00.299Z,3.19
2023-03-04T19:18:49.228Z,3.10
2023-03-04T19:21:39.217Z,3.08
2023-03-04T19:24:28.128Z,3.09
2023-03-04T19:27:16.688Z,3.12
2023-03-04T19:30:08.525Z,3.08
2023-03-04T19:32:59.688Z,3.02
2023-03-04T19:35:48.850Z,3.13
2023-03-04T19:38:37.913Z,3.17
2023-03-04T19:41:26.978Z,3.18
2023-03-04T19:44:15.491Z,3.10
2023-03-04T19:47:04.677Z,3.07
2023-03-04T19:49:55.406Z,3.00
2023-03-04T19:52:44.718Z,2.90
2023-03-04T19:55:38.452Z,2.88
2023-03-04T19:58:26.970Z,2.82
2023-03-04T20:01:28.199Z,2.81
2023-03-04T20:04:19.712Z,2.83
2023-03-04T20:07:10.492Z,2.83
2023-03-04T20:09:59.328Z,2.83
2023-03-04T20:12:47.835Z,2.76
2023-03-04T20:15:37.827Z,2.85
2023-03-04T20:18:26.347Z,2.83
2023-03-04T20:21:15.906Z,2.73
2023-03-04T20:24:07.084Z,2.56
2023-03-04T20:26:57.045Z,2.64
2023-03-04T20:29:46.224Z,2.66
2023-03-04T20:32:35.537Z,2.68
2023-03-04T20:35:24.683Z,2.60
2023-03-04T20:38:15.135Z,2.61
2023-03-04T20:41:06.327Z,2.63
2023-03-04T20:43:55.637Z,2.70
2023-03-04T20:46:46.228Z,2.71
2023-03-04T20:49:35.704Z,2.66
2023-03-04T20:52:24.243Z,2.74
2023-03-04T20:55:13.618Z,2.68
2023-03-04T20:58:04.487Z,2.67
2023-03-04T21:00:54.303Z,2.70
2023-03-04T21:03:43.047Z,2.67
2023-03-04T21:06:32.818Z,2.60
2023-03-04T21:09:23.525Z,2.71
2023-03-04T21:12:13.247Z,2.71
2023-03-04T21:15:03.335Z,2.35
2023-03-04T21:17:52.425Z,2.71
2023-03-04T21:20:41.876Z,2.74
2023-03-04T21:23:30.654Z,2.68
2023-03-04T21:26:20.178Z,2.73
2023-03-04T21:29:09.613Z,2.83
2023-03-04T21:32:20.725Z,2.79
2023-03-04T21:35:15.221Z,2.70
2023-03-04T21:38:04.413Z,2.73
2023-03-04T21:40:53.738Z,2.78
2023-03-04T21:43:42.286Z,2.79
2023-03-04T21:46:31.544Z,2.82
2023-03-04T21:49:21.583Z,2.83
2023-03-04T21:52:11.092Z,2.85
2023-03-04T21:55:00.583Z,2.84
2023-03-04T21:57:49.208Z,2.81
2023-03-04T22:00:39.237Z,2.80
2023-03-04T22:03:28.701Z,2.73
2023-03-04T22:06:21.908Z,2.76
2023-03-04T22:09:12.176Z,2.72
2023-03-04T22:12:00.698Z,2.75
2023-03-04T22:14:50.112Z,2.78
2023-03-04T22:17:38.787Z,2.79
2023-03-04T22:20:28.433Z,2.82
2023-03-04T22:23:20.881Z,2.70
2023-03-04T22:26:12.528Z,2.72
2023-03-04T22:29:02.955Z,2.65
2023-03-04T22:31:51.585Z,2.75
2023-03-04T22:34:41.149Z,2.69
2023-03-04T22:37:30.088Z,2.69
2023-03-04T22:40:20.691Z,2.67
2023-03-04T22:43:09.884Z,2.60
2023-03-04T22:46:00.413Z,2.58
2023-03-04T22:48:49.889Z,2.60
2023-03-04T22:51:40.996Z,2.65
2023-03-04T22:54:30.136Z,2.65
2023-03-04T22:57:20.013Z,2.58
2023-03-04T23:00:19.138Z,2.62
2023-03-04T23:03:08.528Z,2.49
2023-03-04T23:06:07.020Z,2.59
2023-03-04T23:08:55.607Z,2.48
2023-03-04T23:11:44.443Z,2.44
2023-03-04T23:14:34.344Z,2.48
2023-03-04T23:17:24.082Z,2.49
2023-03-04T23:20:14.521Z,2.40
2023-03-04T23:23:03.930Z,2.44
2023-03-04T23:25:53.566Z,2.49
2023-03-04T23:28:42.240Z,2.49
2023-03-04T23:31:34.578Z,2.53
2023-03-04T23:34:23.651Z,2.44
2023-03-04T23:37:12.156Z,2.45
2023-03-04T23:40:01.771Z,2.51
2023-03-04T23:42:50.470Z,2.55
2023-03-04T23:45:40.737Z,2.62
2023-03-04T23:48:30.646Z,2.59
2023-03-04T23:51:21.713Z,2.55
2023-03-04T23:54:10.256Z,2.61
2023-03-04T23:57:00.994Z,2.55
2023-03-04T23:59:49.521Z,2.66
